Time;durP1;ratioP1;P1;durP2;ratioP2;P2;SDS_P1;SDS_P2;PMS_P1;PMS_P2;Temp;Humidity;BMP_temperature;BMP_pressure;BME280_temperature;BME280_humidity;BME280_pressure;Samples;Min_cycle;Max_cycle;Signal;HPM_P1;HPM_P2
2023/02/15 00:01:55;;;;;;;9.00;2.60;;;;;;;-0.98;100.00;100615.73;104728;1303;26565;-71
2023/02/15 00:04:23;;;;;;;8.50;3.20;;;;;;;-0.98;100.00;100612.48;104739;1303;25488;-70
2023/02/15 00:06:51;;;;;;;13.40;4.10;;;;;;;-0.97;100.00;100610.33;104790;1303;26092;-71
2023/02/15 00:09:18;;;;;;;3.40;2.80;;;;;;;-0.97;100.00;100614.38;104025;1303;1003133;-71
2023/02/15 00:11:50;;;;;;;11.00;3.20;;;;;;;-0.97;100.00;100614.77;104735;1303;25376;-69
2023/02/15 00:14:21;;;;;;;11.20;3.40;;;;;;;-0.99;100.00;100616.61;104740;1303;25477;-70
2023/02/15 00:16:49;;;;;;;2.70;2.00;;;;;;;-1.00;100.00;100613.31;104769;1303;23381;-70
2023/02/15 00:19:17;;;;;;;8.00;2.60;;;;;;;-1.00;100.00;100613.13;104046;1303;1003052;-71
2023/02/15 00:21:47;;;;;;;3.80;1.80;;;;;;;-0.98;100.00;100613.77;104746;1303;25473;-71
2023/02/15 00:24:16;;;;;;;5.70;2.70;;;;;;;-0.97;100.00;100615.27;104744;1303;26074;-71
2023/02/15 00:26:43;;;;;;;2.40;2.10;;;;;;;-0.96;100.00;100620.89;103951;1303;1003094;-70
2023/02/15 00:29:11;;;;;;;3.30;2.60;;;;;;;-0.94;100.00;100621.15;104773;1303;22555;-70
2023/02/15 00:31:38;;;;;;;3.50;2.40;;;;;;;-0.92;100.00;100620.50;104695;1303;25389;-70
2023/02/15 00:34:20;;;;;;;4.80;2.50;;;;;;;-0.90;100.00;100618.29;104774;1303;24439;-71
2023/02/15 00:36:47;;;;;;;5.10;2.60;;;;;;;-0.89;100.00;100615.02;104830;1303;23943;-71
2023/02/15 00:39:15;;;;;;;8.00;2.80;;;;;;;-0.87;100.00;100614.95;104769;1303;22516;-72
2023/02/15 00:41:44;;;;;;;0.30;0.30;;;;;;;-0.87;100.00;100613.48;104015;1303;1003550;-70
2023/02/15 00:44:12;;;;;;;10.00;5.30;;;;;;;-0.85;100.00;100615.34;104790;1303;22685;-71
2023/02/15 00:46:39;;;;;;;6.40;3.20;;;;;;;-0.83;100.00;100619.28;104782;1303;25529;-72
2023/02/15 00:49:09;;;;;;;5.90;2.90;;;;;;;-0.81;100.00;100619.89;104699;1303;25473;-71
2023/02/15 00:51:40;;;;;;;5.10;2.80;;;;;;;-0.79;100.00;100624.95;104790;1303;25365;-68
2023/02/15 00:54:08;;;;;;;5.10;2.70;;;;;;;-0.79;100.00;100625.66;104783;1303;25382;-70
2023/02/15 00:56:37;;;;;;;6.10;2.70;;;;;;;-0.79;100.00;100621.01;104773;1303;25561;-70
2023/02/15 00:59:09;;;;;;;7.10;2.80;;;;;;;-0.78;100.00;100622.20;104732;1303;25358;-72
2023/02/15 01:01:36;;;;;;;8.10;3.30;;;;;;;-0.77;100.00;100619.33;104717;1303;26566;-70
2023/02/15 01:04:04;;;;;;;5.30;2.60;;;;;;;-0.77;100.00;100621.26;104724;1303;24262;-71
2023/02/15 01:06:32;;;;;;;4.00;2.20;;;;;;;-0.79;100.00;100615.19;104732;1303;25290;-70
2023/02/15 01:08:59;;;;;;;5.70;2.80;;;;;;;-0.80;100.00;100617.40;104711;1303;26645;-71
2023/02/15 01:11:26;;;;;;;4.30;2.80;;;;;;;-0.83;100.00;100616.81;104108;1303;1003600;-70
2023/02/15 01:13:55;;;;;;;6.30;2.90;;;;;;;-0.85;100.00;100622.06;104714;1303;25538;-70
2023/02/15 01:16:24;;;;;;;14.30;5.60;;;;;;;-0.85;100.00;100624.77;104834;1303;22503;-71
2023/02/15 01:18:56;;;;;;;12.00;4.80;;;;;;;-0.86;100.00;100623.52;104766;1302;23205;-70
2023/02/15 01:21:25;;;;;;;24.40;9.20;;;;;;;-0.86;100.00;100625.86;104747;1303;26566;-70
2023/02/15 01:23:52;;;;;;;16.20;4.80;;;;;;;-0.88;100.00;100626.11;104805;1303;23955;-72
2023/02/15 01:26:21;;;;;;;6.60;3.20;;;;;;;-0.89;100.00;100626.02;104747;1303;25510;-72
2023/02/15 01:28:48;;;;;;;6.20;2.50;;;;;;;-0.90;100.00;100628.20;104584;1303;25358;-71
2023/02/15 01:31:17;;;;;;;11.90;4.70;;;;;;;-0.91;100.00;100626.48;104785;1303;22626;-70
2023/02/15 01:33:46;;;;;;;7.70;4.30;;;;;;;-0.92;100.00;100626.89;104697;1303;22567;-71
2023/02/15 01:36:14;;;;;;;4.20;3.10;;;;;;;-0.93;100.00;100628.16;103989;1303;1003218;-71
2023/02/15 01:38:41;;;;;;;5.30;2.80;;;;;;;-0.94;100.00;100625.41;104662;1302;22508;-70
2023/02/15 01:41:25;;;;;;;5.30;2.60;;;;;;;-0.95;100.00;100624.73;104738;1303;25418;-71
2023/02/15 01:43:57;;;;;;;4.20;2.20;;;;;;;-0.94;100.00;100621.52;104091;1295;1003587;-70
2023/02/15 01:46:37;;;;;;;2.50;2.30;;;;;;;-0.94;100.00;100620.43;103989;1303;1003357;-70
2023/02/15 01:49:13;;;;;;;5.70;2.90;;;;;;;-0.93;100.00;100627.13;104804;1303;25332;-70
2023/02/15 01:51:40;;;;;;;7.30;3.30;;;;;;;-0.93;100.00;100627.65;104794;1303;23847;-70
2023/02/15 01:54:11;;;;;;;8.80;3.80;;;;;;;-0.93;100.00;100627.97;104700;1303;22561;-70
2023/02/15 01:56:38;;;;;;;8.30;2.80;;;;;;;-0.92;100.00;100628.30;104726;1303;22640;-70
2023/02/15 01:59:09;;;;;;;7.50;3.00;;;;;;;-0.91;100.00;100636.55;104480;1303;25456;-68
2023/02/15 02:01:36;;;;;;;6.40;2.90;;;;;;;-0.90;100.00;100631.91;104066;1303;1015990;-71
2023/02/15 02:04:09;;;;;;;5.30;3.00;;;;;;;-0.90;100.00;100633.49;104597;1303;22567;-70
2023/02/15 02:06:37;;;;;;;4.30;2.00;;;;;;;-0.90;100.00;100634.92;104765;1303;25290;-71
2023/02/15 02:09:06;;;;;;;3.00;2.40;;;;;;;-0.91;100.00;100635.69;104802;1303;25480;-71
2023/02/15 02:11:36;;;;;;;3.50;2.10;;;;;;;-0.92;100.00;100637.85;103934;1303;1002907;-72
2023/02/15 02:14:03;;;;;;;2.70;2.00;;;;;;;-0.92;100.00;100639.45;103995;1303;1003812;-69
2023/02/15 02:16:44;;;;;;;4.20;2.30;;;;;;;-0.92;100.00;100636.80;104700;1303;26567;-71
2023/02/15 02:19:27;;;;;;;2.50;1.80;;;;;;;-0.92;100.00;100636.27;104718;1303;23940;-70
2023/02/15 02:22:07;;;;;;;4.40;2.30;;;;;;;-0.91;100.00;100635.52;104799;1303;24043;-70
2023/02/15 02:24:53;;;;;;;2.40;1.70;;;;;;;-0.93;100.00;100635.63;104765;1303;25291;-71
2023/02/15 02:27:26;;;;;;;2.00;1.90;;;;;;;-0.95;100.00;100636.60;104718;1303;22615;-71
2023/02/15 02:30:02;;;;;;;;;;;;;;;-0.97;100.00;100646.27;104738;1303;25491;-71
2023/02/15 02:32:30;;;;;;;2.50;1.80;;;;;;;-1.01;100.00;100647.69;104785;1303;24382;-70
2023/02/15 02:35:43;;;;;;;2.10;1.90;;;;;;;-1.05;100.00;100648.11;104760;1303;26591;-71
2023/02/15 02:38:36;;;;;;;2.30;1.80;;;;;;;-1.10;100.00;100643.08;104130;1308;25533;-69
2023/02/15 02:41:16;;;;;;;;;;;;;;;-1.14;100.00;100646.29;103953;1303;1003296;-70
2023/02/15 02:43:55;;;;;;;4.90;2.00;;;;;;;-1.16;100.00;100653.29;104736;1303;26677;-72
2023/02/15 02:46:28;;;;;;;5.20;1.70;;;;;;;-1.19;100.00;100654.13;103990;1303;1003656;-72
2023/02/15 02:48:55;;;;;;;;;;;;;;;-1.19;100.00;100663.52;104768;1303;24365;-73
2023/02/15 02:51:24;;;;;;;2.60;1.90;;;;;;;-1.19;100.00;100667.75;104697;1303;25516;-74
2023/02/15 02:53:53;;;;;;;5.10;2.50;;;;;;;-1.18;100.00;100668.25;104707;1303;22693;-71
2023/02/15 02:56:38;;;;;;;4.20;2.30;;;;;;;-1.18;100.00;100669.86;104750;1303;22664;-70
2023/02/15 02:59:18;;;;;;;3.80;2.20;;;;;;;-1.18;100.00;100670.56;104035;1303;1003597;-72
2023/02/15 03:01:52;;;;;;;4.60;2.30;;;;;;;-1.17;100.00;100673.12;104669;1303;22684;-71
2023/02/15 03:04:22;;;;;;;5.90;2.40;;;;;;;-1.17;100.00;100674.36;104737;1303;22612;-70
2023/02/15 03:06:58;;;;;;;12.40;2.70;;;;;;;-1.16;100.00;100675.02;104678;1302;24941;-70
2023/02/15 03:09:43;;;;;;;3.30;2.30;;;;;;;-1.14;100.00;100672.29;104034;1303;1003030;-72
2023/02/15 03:12:24;;;;;;;3.30;2.20;;;;;;;-1.12;100.00;100672.20;104096;1303;1003144;-72
2023/02/15 03:15:19;;;;;;;3.90;2.30;;;;;;;-1.13;100.00;100676.64;104645;1303;25380;-70
2023/02/15 03:17:49;;;;;;;5.40;2.20;;;;;;;-1.12;100.00;100673.44;103888;1303;1003019;-70
2023/02/15 03:20:25;;;;;;;13.40;4.90;;;;;;;-1.13;100.00;100679.84;104730;1303;22561;-71
2023/02/15 03:22:57;;;;;;;9.50;4.30;;;;;;;-1.13;100.00;100681.63;104828;1303;25465;-70
2023/02/15 03:25:33;;;;;;;9.80;4.30;;;;;;;-1.12;100.00;100685.48;104744;1303;25444;-70
2023/02/15 03:28:07;;;;;;;7.70;3.40;;;;;;;-1.11;100.00;100685.60;104717;1303;26530;-70
2023/02/15 03:30:35;;;;;;;8.10;2.90;;;;;;;-1.11;100.00;100691.77;104759;1303;22561;-70
2023/02/15 03:33:02;;;;;;;10.20;3.40;;;;;;;-1.11;100.00;100691.63;104791;1303;26533;-71
2023/02/15 03:36:08;;;;;;;5.20;2.50;;;;;;;-1.12;100.00;100694.48;104792;1303;23180;-69
2023/02/15 03:38:59;;;;;;;5.10;2.40;;;;;;;-1.12;100.00;100688.67;104813;1303;25914;-70
2023/02/15 03:41:29;;;;;;;4.20;2.50;;;;;;;-1.14;100.00;100696.34;103964;1303;1003209;-71
2023/02/15 03:44:06;;;;;;;9.70;2.90;;;;;;;-1.15;100.00;100700.83;104834;1303;25465;-71
2023/02/15 03:46:42;;;;;;;8.60;3.20;;;;;;;-1.15;100.00;100701.69;104807;1303;22689;-71
2023/02/15 03:49:44;;;;;;;8.10;3.10;;;;;;;-1.15;100.00;100706.98;104833;1303;22626;-71
2023/02/15 03:52:12;;;;;;;14.00;3.60;;;;;;;-1.16;100.00;100700.51;104157;1303;1003612;-70
2023/02/15 03:54:41;;;;;;;8.80;3.30;;;;;;;-1.17;100.00;100709.57;104670;1303;22508;-69
2023/02/15 04:03:26;;;;;;;11.90;4.60;;;;;;;-1.16;100.00;100721.93;104787;1303;25990;-71
2023/02/15 04:05:54;;;;;;;11.50;4.80;;;;;;;-1.16;100.00;100716.09;104901;1303;25418;-70
2023/02/15 04:10:51;;;;;;;13.70;6.30;;;;;;;-1.16;100.00;100725.13;104836;1303;26673;-70
2023/02/15 04:11:11;;;;;;;8.30;4.80;;;;;;;-1.15;100.00;100727.36;104704;1303;25679;-71
2023/02/15 04:13:39;;;;;;;8.90;4.40;;;;;;;-1.15;100.00;100737.08;104829;1303;25319;-70
2023/02/15 04:16:06;;;;;;;7.00;3.20;;;;;;;-1.16;100.00;100739.45;104775;1303;25460;-70
2023/02/15 04:26:59;;;;;;;5.70;3.40;;;;;;;-1.16;100.00;100761.21;104763;1303;22559;-69
2023/02/15 04:29:27;;;;;;;8.20;4.00;;;;;;;-1.15;100.00;100773.54;104803;1303;26539;-72
2023/02/15 04:31:55;;;;;;;5.50;3.10;;;;;;;-1.15;100.00;100772.98;104823;1303;26083;-72
2023/02/15 04:34:22;;;;;;;7.20;3.10;;;;;;;-1.14;100.00;100774.39;104931;1303;22577;-70
2023/02/15 04:36:50;;;;;;;2.80;1.90;;;;;;;-1.15;100.00;100778.30;104882;1303;22582;-72
2023/02/15 04:39:17;;;;;;;5.90;2.70;;;;;;;-1.14;100.00;100780.05;104098;1303;1005166;-70
2023/02/15 04:41:45;;;;;;;3.00;2.10;;;;;;;-1.15;100.00;100786.79;104072;1303;1002837;-70
2023/02/15 04:44:13;;;;;;;5.60;2.50;;;;;;;-1.14;100.00;100792.98;104099;1303;1003817;-69
2023/02/15 04:46:40;;;;;;;3.90;2.40;;;;;;;-1.15;100.00;100799.36;104782;1303;23788;-70
2023/02/15 04:49:08;;;;;;;6.10;3.30;;;;;;;-1.14;100.00;100801.12;104070;1303;1003843;-74
2023/02/15 04:51:35;;;;;;;13.70;4.70;;;;;;;-1.14;100.00;100801.09;104066;1303;1003117;-71
2023/02/15 04:54:04;;;;;;;6.20;3.60;;;;;;;-1.15;100.00;100802.23;104818;1303;25457;-69
2023/02/15 04:56:34;;;;;;;11.00;4.90;;;;;;;-1.16;100.00;100808.12;104007;1303;1003799;-71
2023/02/15 04:59:02;;;;;;;6.00;3.30;;;;;;;-1.17;100.00;100809.92;104820;1303;23940;-70
2023/02/15 05:01:29;;;;;;;3.80;2.60;;;;;;;-1.18;100.00;100812.80;104015;1303;1003712;-71
2023/02/15 05:03:56;;;;;;;8.20;4.50;;;;;;;-1.18;100.00;100820.95;104794;1303;24266;-70
2023/02/15 05:06:24;;;;;;;5.60;3.30;;;;;;;-1.18;100.00;100828.73;104761;1303;22551;-70
2023/02/15 05:08:51;;;;;;;4.00;2.60;;;;;;;-1.16;100.00;100836.42;104874;1303;22544;-72
2023/02/15 05:11:18;;;;;;;4.40;2.60;;;;;;;-1.16;100.00;100836.92;104868;1303;25635;-70
2023/02/15 05:13:45;;;;;;;3.10;2.70;;;;;;;-1.15;100.00;100838.66;104855;1303;23904;-71
2023/02/15 05:16:14;;;;;;;2.40;2.20;;;;;;;-1.13;100.00;100840.17;104773;1303;23896;-72
2023/02/15 05:18:41;;;;;;;3.40;2.40;;;;;;;-1.12;100.00;100848.06;104758;1303;25345;-73
2023/02/15 05:21:09;;;;;;;2.10;2.00;;;;;;;-1.10;100.00;100845.69;104748;1303;22771;-71
2023/02/15 05:23:36;;;;;;;4.00;2.90;;;;;;;-1.08;100.00;100854.25;104793;1303;22684;-71
2023/02/15 05:28:49;;;;;;;3.90;2.40;;;;;;;-1.05;100.00;100848.95;104073;1303;1003261;-71
2023/02/15 05:31:17;;;;;;;2.90;2.10;;;;;;;-1.04;100.00;100859.35;104808;1303;23141;-71
2023/02/15 05:33:46;;;;;;;3.00;2.30;;;;;;;-1.02;100.00;100858.34;104792;1303;22991;-72
2023/02/15 05:36:13;;;;;;;4.50;3.00;;;;;;;-1.00;100.00;100864.45;104054;1303;1003472;-72
2023/02/15 05:38:40;;;;;;;2.30;2.10;;;;;;;-0.98;100.00;100865.61;104835;1303;24822;-70
2023/02/15 05:41:08;;;;;;;4.70;2.30;;;;;;;-0.97;100.00;100867.11;104853;1302;25489;-72
2023/02/15 05:43:38;;;;;;;9.20;2.90;;;;;;;-0.94;100.00;100872.67;104879;1303;22701;-72
2023/02/15 05:46:05;;;;;;;6.60;2.80;;;;;;;-0.94;100.00;100871.91;104603;1303;25479;-73
2023/02/15 05:48:32;;;;;;;8.50;3.40;;;;;;;-0.92;100.00;100869.90;104082;1303;1003831;-72
2023/02/15 05:51:08;;;;;;;6.10;3.10;;;;;;;-0.91;100.00;100871.77;104748;1303;26073;-71
2023/02/15 05:53:36;;;;;;;12.20;4.00;;;;;;;-0.90;100.00;100872.65;104779;1303;22582;-71
2023/02/15 05:56:05;;;;;;;14.80;6.50;;;;;;;-0.90;100.00;100881.33;104704;1303;22740;-73
2023/02/15 05:58:37;;;;;;;10.40;5.30;;;;;;;-0.89;100.00;100884.43;104846;1303;26708;-70
2023/02/15 06:01:12;;;;;;;6.10;3.90;;;;;;;-0.89;100.00;100892.56;104168;1303;1003154;-70
2023/02/15 06:03:40;;;;;;;6.50;3.50;;;;;;;-0.87;100.00;100893.36;104209;1303;1003476;-69
2023/02/15 06:06:07;;;;;;;6.80;3.30;;;;;;;-0.83;100.00;100897.96;104869;1303;25395;-72
2023/02/15 06:08:35;;;;;;;8.50;3.70;;;;;;;-0.80;100.00;100896.92;104814;1303;22964;-73
2023/02/15 06:11:03;;;;;;;12.10;4.20;;;;;;;-0.78;100.00;100899.82;104140;1302;1003643;-71
2023/02/15 06:13:31;;;;;;;4.60;3.20;;;;;;;-0.75;100.00;100906.26;104158;1303;1003787;-72
2023/02/15 06:16:00;;;;;;;7.30;3.60;;;;;;;-0.74;100.00;100910.09;104737;1303;25449;-70
2023/02/15 06:18:28;;;;;;;23.50;8.40;;;;;;;-0.75;100.00;100910.30;104777;1303;25483;-72
2023/02/15 06:20:55;;;;;;;20.70;8.50;;;;;;;-0.73;100.00;100913.94;103846;1303;1003642;-70
2023/02/15 06:23:23;;;;;;;18.70;10.10;;;;;;;-0.72;100.00;100919.52;104758;1303;25532;-71
2023/02/15 06:25:50;;;;;;;8.80;4.90;;;;;;;-0.70;100.00;100925.79;104776;1303;26639;-70
2023/02/15 06:28:19;;;;;;;6.30;4.10;;;;;;;-0.67;100.00;100926.38;104773;1303;25288;-71
2023/02/15 06:30:46;;;;;;;6.00;3.70;;;;;;;-0.65;100.00;100931.75;104745;1303;23131;-73
2023/02/15 06:33:14;;;;;;;18.00;6.20;;;;;;;-0.63;100.00;100938.56;104812;1303;26539;-72
2023/02/15 06:35:42;;;;;;;9.60;4.30;;;;;;;-0.61;100.00;100943.95;104822;1303;25396;-72
2023/02/15 06:38:09;;;;;;;7.00;3.40;;;;;;;-0.59;100.00;100949.00;104721;1303;25398;-72
2023/02/15 06:40:36;;;;;;;6.10;3.40;;;;;;;-0.59;100.00;100949.48;104762;1303;23909;-72
2023/02/15 06:43:08;;;;;;;8.60;5.10;;;;;;;-0.57;100.00;100950.84;104755;1303;25469;-74
2023/02/15 06:45:35;;;;;;;11.10;5.20;;;;;;;-0.56;100.00;100955.96;104023;1303;1002963;-73
2023/02/15 06:48:02;;;;;;;14.90;6.80;;;;;;;-0.55;100.00;100959.80;104836;1303;26597;-72
2023/02/15 06:50:30;;;;;;;8.70;4.50;;;;;;;-0.55;100.00;100962.95;104857;1303;26624;-72
2023/02/15 06:52:58;;;;;;;9.90;4.60;;;;;;;-0.54;100.00;100971.41;104902;1303;23887;-73
2023/02/15 06:55:25;;;;;;;21.10;7.10;;;;;;;-0.53;100.00;100975.09;104688;1303;23893;-72
2023/02/15 06:57:53;;;;;;;18.70;6.70;;;;;;;-0.51;100.00;100977.45;104791;1303;25653;-73
2023/02/15 07:00:23;;;;;;;11.90;4.70;;;;;;;-0.49;100.00;100981.23;104774;1297;25429;-74
2023/02/15 07:02:57;;;;;;;9.90;4.40;;;;;;;-0.47;100.00;100984.86;104815;1298;22578;-70
2023/02/15 07:05:30;;;;;;;10.30;5.00;;;;;;;-0.44;100.00;100982.77;104586;1298;22685;-73
2023/02/15 07:08:01;;;;;;;16.60;6.20;;;;;;;-0.41;100.00;100988.30;104630;1297;22693;-72
2023/02/15 07:10:29;;;;;;;11.20;4.20;;;;;;;-0.37;100.00;100995.73;104613;1301;25325;-73
2023/02/15 07:12:56;;;;;;;17.20;7.50;;;;;;;-0.34;100.00;101000.53;103903;1298;1002957;-72
2023/02/15 07:15:25;;;;;;;12.50;5.20;;;;;;;-0.33;100.00;101001.05;104527;1298;27401;-69
2023/02/15 07:17:52;;;;;;;13.60;4.60;;;;;;;-0.31;100.00;101004.97;103821;1298;1003388;-73
2023/02/15 07:20:21;;;;;;;12.40;5.10;;;;;;;-0.28;100.00;101008.16;104653;1297;25509;-70
2023/02/15 07:22:49;;;;;;;13.10;5.30;;;;;;;-0.24;100.00;101011.89;104793;1298;25464;-72
2023/02/15 07:25:19;;;;;;;12.80;5.00;;;;;;;-0.21;100.00;101013.53;103957;1301;1003600;-73
2023/02/15 07:27:48;;;;;;;13.20;4.50;;;;;;;-0.19;100.00;101018.88;104800;1304;22795;-71
2023/02/15 07:30:16;;;;;;;17.70;7.70;;;;;;;-0.15;100.00;101021.72;104834;1304;25389;-72
2023/02/15 07:35:33;;;;;;;23.30;9.40;;;;;;;-0.09;100.00;101025.09;104149;1304;1003575;-72
2023/02/15 07:38:01;;;;;;;14.10;5.90;;;;;;;-0.05;100.00;101037.34;104799;1304;22794;-72
2023/02/15 07:40:28;;;;;;;18.80;8.00;;;;;;;-0.04;100.00;101038.85;104818;1298;25478;-72
2023/02/15 07:42:57;;;;;;;27.20;12.60;;;;;;;-0.04;100.00;101036.01;104718;1298;26573;-74
2023/02/15 07:45:25;;;;;;;11.90;6.50;;;;;;;-0.02;100.00;101040.73;104637;1304;22655;-74
2023/02/15 07:47:55;;;;;;;11.60;5.10;;;;;;;0.00;100.00;101045.95;104178;1298;1003192;-75
2023/02/15 07:50:23;;;;;;;19.00;7.70;;;;;;;-0.02;100.00;101048.86;104093;1301;1003233;-71
2023/02/15 07:52:51;;;;;;;20.60;8.10;;;;;;;-0.03;100.00;101047.66;104665;1284;25465;-72
2023/02/15 07:55:18;;;;;;;13.90;6.60;;;;;;;-0.02;100.00;101048.86;104731;1304;25447;-72
2023/02/15 07:57:47;;;;;;;15.00;5.60;;;;;;;0.01;100.00;101050.17;103955;1304;1003321;-70
2023/02/15 08:00:16;;;;;;;19.20;8.00;;;;;;;0.00;100.00;101050.71;104767;1304;23663;-71
2023/02/15 08:02:48;;;;;;;17.10;6.30;;;;;;;-0.01;100.00;101050.08;104698;1304;22570;-69
2023/02/15 08:05:18;;;;;;;15.90;6.70;;;;;;;-0.03;100.00;101051.91;104650;1298;24267;-69
2023/02/15 08:07:45;;;;;;;23.70;11.80;;;;;;;-0.02;100.00;101052.96;104071;1295;1003558;-71
2023/02/15 08:11:24;;;;;;;36.90;14.80;;;;;;;0.01;100.00;101063.27;104955;1298;25339;-71
2023/02/15 08:13:00;;;;;;;34.20;15.40;;;;;;;0.06;100.00;101057.69;104386;1298;1003731;-71
2023/02/15 08:15:31;;;;;;;25.30;11.40;;;;;;;0.11;100.00;101069.46;104915;1298;26236;-72
2023/02/15 08:17:59;;;;;;;30.40;15.70;;;;;;;0.18;100.00;101076.60;105156;1301;22604;-72
2023/02/15 08:20:26;;;;;;;38.80;18.90;;;;;;;0.20;100.00;101074.86;105217;1303;22576;-71
2023/02/15 08:22:55;;;;;;;45.60;21.80;;;;;;;0.22;100.00;101076.20;105192;1296;23857;-74
2023/02/15 08:25:26;;;;;;;52.20;26.40;;;;;;;0.24;100.00;101081.95;104573;1302;1002961;-72
2023/02/15 08:27:58;;;;;;;79.60;39.80;;;;;;;0.23;100.00;101075.61;104437;1303;1003606;-72
2023/02/15 08:30:33;;;;;;;25.90;14.30;;;;;;;0.21;100.00;101075.92;104327;1303;25527;-70
2023/02/15 08:33:03;;;;;;;22.40;11.10;;;;;;;0.17;100.00;101083.02;104829;1298;26555;-69
2023/02/15 08:35:31;;;;;;;22.50;11.80;;;;;;;0.11;100.00;101087.23;104737;1298;24385;-73
2023/02/15 08:37:59;;;;;;;20.30;9.80;;;;;;;0.06;100.00;101092.09;105230;1303;22558;-71
2023/02/15 08:40:26;;;;;;;24.80;12.60;;;;;;;0.02;100.00;101093.40;105049;1304;22547;-73
2023/02/15 08:42:53;;;;;;;23.10;11.50;;;;;;;-0.02;100.00;101096.71;105360;1304;25499;-73
2023/02/15 08:45:21;;;;;;;25.90;13.60;;;;;;;0.01;100.00;101104.21;105156;1304;24371;-71
2023/02/15 08:47:49;;;;;;;21.20;11.50;;;;;;;0.05;100.00;101107.58;105075;1293;22572;-71
2023/02/15 08:50:16;;;;;;;29.80;14.40;;;;;;;0.08;100.00;101106.37;104141;1304;1003645;-71
2023/02/15 08:52:44;;;;;;;25.40;13.20;;;;;;;0.10;100.00;101108.21;104763;1304;25408;-69
2023/02/15 08:55:11;;;;;;;20.80;10.50;;;;;;;0.11;100.00;101109.36;104698;1304;22504;-70
2023/02/15 08:57:44;;;;;;;19.80;10.60;;;;;;;0.12;100.00;101106.14;104660;1297;23941;-71
2023/02/15 09:00:13;;;;;;;25.00;14.80;;;;;;;0.14;100.00;101104.45;104668;1298;252093;-70
2023/02/15 09:02:40;;;;;;;32.20;20.00;;;;;;;0.17;100.00;101109.76;104814;1303;22624;-70
2023/02/15 09:05:07;;;;;;;26.10;14.40;;;;;;;0.21;100.00;101114.91;104936;1303;22566;-72
2023/02/15 09:07:35;;;;;;;18.30;10.20;;;;;;;0.23;100.00;101112.88;104773;1301;25355;-70
2023/02/15 09:10:05;;;;;;;31.60;15.70;;;;;;;0.23;100.00;101105.41;104827;1295;25629;-71
2023/02/15 09:12:33;;;;;;;42.40;19.90;;;;;;;0.24;100.00;101106.81;104663;1295;25850;-72
2023/02/15 09:15:05;;;;;;;40.40;20.30;;;;;;;0.27;100.00;101104.50;104771;1296;26617;-68
2023/02/15 09:17:34;;;;;;;24.30;13.60;;;;;;;0.34;100.00;101103.24;105160;1298;23838;-72
2023/02/15 09:20:01;;;;;;;24.80;13.00;;;;;;;0.42;100.00;101104.28;105331;1297;24394;-74
2023/02/15 09:22:31;;;;;;;19.10;8.00;;;;;;;0.47;100.00;101102.57;104889;1298;22667;-69
2023/02/15 09:24:59;;;;;;;28.70;13.00;;;;;;;0.53;100.00;101098.86;104726;1303;25466;-72
2023/02/15 09:27:26;;;;;;;37.00;22.40;;;;;;;0.59;100.00;101094.50;104675;1297;22579;-70
2023/02/15 09:29:53;;;;;;;19.80;10.70;;;;;;;0.65;100.00;101095.23;104672;1304;25392;-70
2023/02/15 09:32:21;;;;;;;18.00;9.00;;;;;;;0.70;100.00;101092.33;104072;1298;1002903;-70
2023/02/15 09:34:50;;;;;;;21.90;9.10;;;;;;;0.74;100.00;101093.52;103811;1298;1003045;-72
2023/02/15 09:37:19;;;;;;;27.90;15.90;;;;;;;0.76;100.00;101093.73;104946;1298;24306;-69
2023/02/15 09:39:46;;;;;;;24.40;11.60;;;;;;;0.80;100.00;101092.30;104790;1298;22594;-71
2023/02/15 09:42:23;;;;;;;27.30;13.50;;;;;;;0.84;100.00;101093.33;104856;1304;22634;-74
2023/02/15 09:45:08;;;;;;;24.90;13.40;;;;;;;0.88;100.00;101088.48;105083;1304;25581;-72
2023/02/15 09:47:44;;;;;;;26.20;12.80;;;;;;;0.91;100.00;101086.92;104971;1303;26571;-74
2023/02/15 09:50:12;;;;;;;32.00;16.50;;;;;;;0.89;100.00;101088.29;104924;1304;26611;-73
2023/02/15 09:52:53;;;;;;;29.80;16.20;;;;;;;0.84;100.00;101092.46;104908;1304;25523;-73
2023/02/15 09:55:25;;;;;;;22.30;11.30;;;;;;;0.77;100.00;101088.02;104750;1296;24269;-74
2023/02/15 09:58:12;;;;;;;32.80;15.80;;;;;;;0.71;100.00;101089.09;104924;1304;26552;-73
2023/02/15 10:00:55;;;;;;;61.00;28.90;;;;;;;0.69;100.00;101080.28;104796;1304;22617;-71
2023/02/15 10:03:58;;;;;;;33.60;15.20;;;;;;;0.73;100.00;101092.47;104902;1304;22558;-72
2023/02/15 10:06:46;;;;;;;38.60;17.30;;;;;;;0.72;100.00;101088.80;104960;1303;25384;-71
2023/02/15 10:09:48;;;;;;;23.70;12.90;;;;;;;0.71;100.00;101098.48;104959;1304;26676;-71
2023/02/15 10:12:32;;;;;;;15.60;8.60;;;;;;;0.64;100.00;101091.76;105154;1303;26554;-72
2023/02/15 10:15:16;;;;;;;20.40;9.00;;;;;;;0.59;100.00;101096.11;104981;1303;26694;-73
2023/02/15 10:18:06;;;;;;;34.80;19.60;;;;;;;0.60;100.00;101097.64;105092;1303;25955;-76
2023/02/15 10:20:56;;;;;;;19.70;7.70;;;;;;;0.63;100.00;101100.34;105113;1302;23654;-74
2023/02/15 10:23:37;;;;;;;24.70;11.40;;;;;;;0.68;100.00;101105.73;104377;1295;1003245;-73
2023/02/15 10:26:11;;;;;;;16.00;8.40;;;;;;;0.75;100.00;101114.75;104416;1303;1003101;-74
2023/02/15 10:29:09;;;;;;;22.50;10.80;;;;;;;0.73;100.00;101118.73;104974;1298;26669;-73
2023/02/15 10:31:50;;;;;;;19.20;9.40;;;;;;;0.63;100.00;101102.45;105437;1296;22717;-72
2023/02/15 10:34:39;;;;;;;16.80;8.80;;;;;;;0.58;100.00;101111.97;104885;1301;22564;-71
2023/02/15 10:37:16;;;;;;;22.60;11.10;;;;;;;0.55;100.00;101109.26;104774;1298;25288;-71
2023/02/15 10:40:05;;;;;;;21.80;9.60;;;;;;;0.55;100.00;101118.85;105076;1298;25345;-71
2023/02/15 10:43:11;;;;;;;22.30;11.50;;;;;;;0.53;100.00;101110.41;105024;1303;25459;-73
2023/02/15 10:46:00;;;;;;;35.30;20.30;;;;;;;0.49;100.00;101106.92;103618;1309;1002928;-74
2023/02/15 10:49:05;;;;;;;30.60;16.50;;;;;;;0.49;100.00;101112.05;105211;1296;25470;-73
2023/02/15 10:52:02;;;;;;;25.30;12.20;;;;;;;0.49;100.00;101109.54;104871;1304;26096;-71
2023/02/15 10:55:23;;;;;;;23.00;11.30;;;;;;;0.49;100.00;101112.77;104907;1304;26641;-71
2023/02/15 10:57:55;;;;;;;13.10;6.30;;;;;;;0.49;100.00;101105.85;104542;1309;25469;-72
2023/02/15 11:00:39;;;;;;;29.50;10.50;;;;;;;0.43;100.00;101123.03;104819;1304;26536;-73
2023/02/15 11:03:31;;;;;;;17.70;8.30;;;;;;;0.36;100.00;101124.45;105173;1304;23790;-72
2023/02/15 11:06:04;;;;;;;;;;;;;;;0.32;100.00;101123.71;105345;1301;25440;-73
2023/02/15 11:08:37;;;;;;;30.50;12.70;;;;;;;0.32;100.00;101137.77;105043;1298;23970;-72
2023/02/15 11:11:09;;;;;;;38.10;16.90;;;;;;;0.31;100.00;101143.13;104663;1304;23180;-76
2023/02/15 11:13:42;;;;;;;30.80;13.70;;;;;;;0.32;100.00;101147.00;104431;1298;1003082;-71
2023/02/15 11:16:25;;;;;;;20.70;8.30;;;;;;;0.32;100.00;101146.77;104442;1304;1003867;-74
2023/02/15 11:18:59;;;;;;;24.00;12.00;;;;;;;0.30;100.00;101145.11;105193;1304;22706;-74
2023/02/15 11:21:28;;;;;;;13.10;7.10;;;;;;;0.27;100.00;101151.52;104380;1304;1003215;-72
2023/02/15 11:23:55;;;;;;;14.70;6.90;;;;;;;0.24;100.00;101152.37;105037;1304;25461;-72
2023/02/15 11:26:32;;;;;;;17.70;8.20;;;;;;;0.25;100.00;101153.55;105216;1304;22556;-73
2023/02/15 11:29:06;;;;;;;22.10;12.90;;;;;;;0.31;100.00;101147.39;105268;1304;23873;-75
2023/02/15 11:31:44;;;;;;;19.90;10.20;;;;;;;0.39;100.00;101151.05;105310;1304;22570;-72
2023/02/15 11:34:34;;;;;;;18.30;8.40;;;;;;;0.46;100.00;101147.52;105226;1304;26563;-73
2023/02/15 11:37:05;;;;;;;38.50;18.60;;;;;;;0.51;100.00;101135.55;105254;1304;25462;-72
2023/02/15 12:25:54;;;;;;;21.90;9.10;;;;;;;0.75;100.00;101045.00;93621;1289;966273;-70
2023/02/15 12:28:32;;;;;;;15.30;6.20;;;;;;;0.78;100.00;101078.59;105213;1301;24250;-72
2023/02/15 12:31:01;;;;;;;26.40;9.60;;;;;;;0.75;100.00;101079.58;105053;1303;25420;-72
2023/02/15 12:33:33;;;;;;;23.00;11.90;;;;;;;0.72;100.00;101081.21;105228;1303;25458;-73
2023/02/15 12:36:02;;;;;;;23.00;11.30;;;;;;;0.66;100.00;101084.73;105226;1299;26077;-70